createdAt,value
2022-10-07T00:01:11.766Z,17.10
2022-10-07T00:03:41.169Z,16.10
2022-10-07T00:06:18.621Z,15.30
2022-10-07T00:08:50.292Z,21.50
2022-10-07T00:11:24.129Z,21.20
2022-10-07T00:13:58.716Z,19.90
2022-10-07T00:16:30.332Z,14.70
2022-10-07T00:19:02.584Z,17.20
2022-10-07T00:21:33.580Z,14.00
2022-10-07T00:24:01.902Z,16.00
2022-10-07T00:26:32.683Z,15.70
2022-10-07T00:29:02.095Z,13.50
2022-10-07T00:31:33.547Z,16.40
2022-10-07T00:34:03.774Z,14.70
2022-10-07T00:36:35.317Z,13.90
2022-10-07T00:39:09.294Z,16.30
2022-10-07T00:41:39.905Z,11.90
2022-10-07T00:44:29.867Z,11.90
2022-10-07T00:47:00.115Z,14.40
2022-10-07T00:49:29.920Z,14.70
2022-10-07T00:51:58.737Z,16.80
2022-10-07T00:54:27.164Z,15.20
2022-10-07T00:56:55.875Z,17.10
2022-10-07T00:59:24.190Z,18.70
2022-10-07T01:01:52.426Z,13.10
2022-10-07T01:04:20.692Z,11.30
2022-10-07T01:06:48.988Z,16.40
2022-10-07T01:09:17.825Z,15.80
2022-10-07T01:12:22.281Z,12.60
2022-10-07T01:14:58.554Z,12.40
2022-10-07T01:17:47.395Z,13.10
2022-10-07T01:20:34.357Z,14.70
2022-10-07T01:23:05.222Z,12.80
2022-10-07T01:26:09.677Z,17.00
2022-10-07T01:28:44.749Z,11.90
2022-10-07T01:31:18.071Z,15.00
2022-10-07T01:33:49.593Z,15.50
2022-10-07T01:36:22.996Z,13.20
2022-10-07T01:38:59.631Z,15.10
2022-10-07T01:41:29.365Z,13.40
2022-10-07T01:43:59.675Z,14.60
2022-10-07T01:46:28.749Z,14.60
2022-10-07T01:48:58.714Z,13.60
2022-10-07T01:51:30.991Z,14.00
2022-10-07T01:54:24.614Z,16.90
2022-10-07T01:57:18.504Z,15.90
2022-10-07T01:59:59.097Z,11.60
2022-10-07T02:02:47.402Z,15.60
2022-10-07T02:05:37.874Z,11.90
2022-10-07T02:08:15.338Z,15.80
2022-10-07T02:10:52.978Z,15.90
2022-10-07T02:13:38.741Z,13.20
2022-10-07T02:16:17.553Z,12.40
2022-10-07T02:18:51.625Z,14.30
2022-10-07T02:21:29.649Z,17.00
2022-10-07T02:23:59.625Z,10.80
2022-10-07T02:26:31.869Z,15.20
2022-10-07T02:29:03.941Z,13.60
2022-10-07T02:31:34.999Z,15.80
2022-10-07T02:34:07.714Z,12.10
2022-10-07T02:37:03.617Z,15.00
2022-10-07T02:39:33.826Z,11.80
2022-10-07T02:42:16.815Z,14.80
2022-10-07T02:45:02.414Z,13.80
2022-10-07T02:47:49.880Z,14.40
2022-10-07T02:50:23.883Z,13.90
2022-10-07T02:52:56.173Z,16.30
2022-10-07T02:55:27.797Z,14.40
2022-10-07T02:58:00.928Z,15.50
2022-10-07T03:00:33.659Z,13.80
2022-10-07T03:03:05.319Z,12.30
2022-10-07T03:05:54.866Z,10.40
2022-10-07T03:08:24.707Z,12.10
2022-10-07T03:10:53.040Z,13.10
2022-10-07T03:13:21.363Z,13.00
2022-10-07T03:15:52.978Z,12.40
2022-10-07T03:18:28.408Z,13.90
2022-10-07T03:21:29.219Z,10.70
2022-10-07T03:24:05.011Z,13.10
2022-10-07T03:26:38.145Z,11.30
2022-10-07T03:29:08.554Z,12.90
2022-10-07T03:31:37.596Z,13.00
2022-10-07T03:34:05.874Z,13.80
2022-10-07T03:36:34.199Z,13.90
2022-10-07T03:39:04.046Z,12.90
2022-10-07T03:41:33.595Z,16.50
2022-10-07T03:44:03.253Z,13.40
2022-10-07T03:46:31.682Z,15.40
2022-10-07T03:49:00.207Z,11.30
2022-10-07T03:51:29.287Z,11.60
2022-10-07T03:53:59.005Z,12.10
2022-10-07T03:56:30.582Z,13.40
2022-10-07T03:58:59.847Z,9.30
2022-10-07T04:01:31.724Z,12.60
2022-10-07T04:04:00.987Z,11.90
2022-10-07T04:06:32.212Z,13.60
2022-10-07T04:09:03.719Z,14.00
2022-10-07T04:11:31.899Z,14.00
2022-10-07T04:14:00.946Z,14.90
2022-10-07T04:16:30.349Z,11.40
2022-10-07T04:19:00.664Z,13.00
2022-10-07T04:21:29.781Z,10.80
2022-10-07T04:23:58.159Z,11.40
2022-10-07T04:26:26.545Z,13.00
2022-10-07T04:28:54.918Z,14.20
2022-10-07T04:31:24.409Z,12.70
2022-10-07T04:33:58.066Z,10.80
2022-10-07T04:36:30.070Z,11.60
2022-10-07T04:39:04.094Z,10.50
2022-10-07T04:41:35.973Z,13.40
2022-10-07T04:44:05.129Z,11.00
2022-10-07T04:46:37.099Z,12.00
2022-10-07T04:49:10.812Z,13.00
2022-10-07T04:51:39.243Z,11.70
2022-10-07T04:54:08.578Z,12.90
2022-10-07T04:56:43.311Z,17.50
2022-10-07T04:59:13.297Z,13.90
2022-10-07T05:01:42.240Z,27.80
2022-10-07T05:04:11.932Z,19.40
2022-10-07T05:06:40.182Z,19.50
2022-10-07T05:09:08.834Z,21.60
2022-10-07T05:11:39.097Z,17.10
2022-10-07T05:14:11.836Z,22.90
2022-10-07T05:16:42.779Z,18.80
2022-10-07T05:19:11.373Z,16.10
2022-10-07T05:21:40.256Z,12.90
2022-10-07T05:24:08.742Z,16.10
2022-10-07T05:26:38.980Z,16.30
2022-10-07T05:29:09.457Z,18.90
2022-10-07T05:31:42.624Z,24.20
2022-10-07T05:34:11.861Z,26.20
2022-10-07T05:36:40.463Z,43.10
2022-10-07T05:39:11.944Z,50.70
2022-10-07T05:41:48.856Z,32.70
2022-10-07T05:44:19.458Z,35.20
2022-10-07T05:46:49.498Z,34.50
2022-10-07T05:49:18.140Z,28.30
2022-10-07T05:51:46.506Z,26.60
2022-10-07T05:54:15.346Z,22.00
2022-10-07T05:56:44.367Z,21.50
2022-10-07T05:59:12.748Z,19.00
2022-10-07T06:01:43.173Z,16.30
2022-10-07T06:04:15.895Z,23.90
2022-10-07T06:06:47.171Z,16.70
2022-10-07T06:09:34.798Z,22.50
2022-10-07T06:12:25.703Z,16.90
2022-10-07T06:14:54.439Z,13.60
2022-10-07T06:17:22.736Z,12.90
2022-10-07T06:19:52.033Z,15.20
2022-10-07T06:22:21.979Z,14.10
2022-10-07T06:24:52.338Z,14.60
2022-10-07T06:27:20.811Z,14.20
2022-10-07T06:29:50.275Z,15.30
2022-10-07T06:32:52.342Z,14.30
2022-10-07T06:35:21.207Z,17.80
2022-10-07T06:37:49.934Z,15.20
2022-10-07T06:40:18.113Z,12.30
2022-10-07T06:42:46.360Z,16.90
2022-10-07T06:45:43.890Z,14.70
2022-10-07T06:48:13.146Z,14.50
2022-10-07T06:50:50.354Z,14.00
2022-10-07T06:53:19.033Z,15.30
2022-10-07T06:55:48.177Z,17.80
2022-10-07T06:58:16.344Z,17.50
2022-10-07T07:00:50.479Z,26.00
2022-10-07T07:03:19.215Z,27.90
2022-10-07T07:05:49.745Z,24.10
2022-10-07T07:08:22.463Z,26.80
2022-10-07T07:10:51.013Z,25.30
2022-10-07T07:13:19.419Z,26.40
2022-10-07T07:15:56.258Z,24.20
2022-10-07T07:18:25.739Z,28.90
2022-10-07T07:20:54.230Z,23.10
2022-10-07T07:23:23.890Z,23.90
2022-10-07T07:25:52.131Z,23.40
2022-10-07T07:28:20.429Z,24.40
2022-10-07T07:30:50.780Z,21.40
2022-10-07T07:33:19.183Z,18.30
2022-10-07T07:35:47.465Z,18.20
2022-10-07T07:38:15.698Z,22.30
2022-10-07T07:40:44.838Z,19.40
2022-10-07T07:43:14.528Z,23.20
2022-10-07T07:45:43.448Z,18.20
2022-10-07T07:48:13.331Z,18.00
2022-10-07T07:50:41.655Z,18.70
2022-10-07T07:53:10.364Z,16.70
2022-10-07T07:55:38.656Z,12.80
2022-10-07T07:58:11.759Z,13.30
2022-10-07T08:00:41.298Z,14.50
2022-10-07T08:03:09.543Z,14.30
2022-10-07T08:05:37.945Z,15.30
2022-10-07T08:08:06.246Z,15.90
2022-10-07T08:10:35.011Z,15.90
2022-10-07T08:13:03.177Z,13.40
2022-10-07T08:15:31.510Z,13.10
2022-10-07T08:18:00.518Z,15.40
2022-10-07T08:20:29.285Z,13.30
2022-10-07T08:23:00.138Z,14.60
2022-10-07T08:25:28.385Z,14.70
2022-10-07T08:27:58.170Z,11.10
2022-10-07T08:30:26.640Z,11.40
2022-10-07T08:32:59.050Z,11.10
2022-10-07T08:35:29.520Z,12.20
2022-10-07T08:37:57.720Z,12.40
2022-10-07T08:40:26.065Z,11.40
2022-10-07T08:42:54.780Z,13.40
2022-10-07T08:45:31.932Z,11.60
2022-10-07T08:48:07.878Z,10.00
2022-10-07T08:51:03.559Z,11.90
2022-10-07T08:53:37.287Z,9.10
2022-10-07T08:56:13.477Z,11.10
2022-10-07T08:59:17.270Z,12.80
2022-10-07T09:02:00.711Z,14.70
2022-10-07T09:04:38.005Z,12.10
2022-10-07T09:07:13.897Z,11.20
2022-10-07T09:09:55.133Z,13.80
2022-10-07T09:12:44.609Z,12.60
2022-10-07T09:15:45.525Z,10.00
2022-10-07T09:18:25.288Z,13.60
2022-10-07T09:20:56.143Z,12.50
2022-10-07T09:23:29.309Z,12.20
2022-10-07T09:25:58.094Z,13.30
2022-10-07T09:28:30.480Z,10.90
2022-10-07T09:31:00.878Z,10.10
2022-10-07T09:33:32.689Z,10.90
2022-10-07T09:36:10.978Z,12.10
2022-10-07T09:38:44.770Z,10.10
2022-10-07T09:41:17.839Z,10.30
2022-10-07T09:44:00.289Z,11.50
2022-10-07T09:46:47.059Z,11.80
2022-10-07T09:49:27.627Z,10.90
2022-10-07T09:52:14.567Z,11.20
2022-10-07T09:54:46.192Z,9.30
2022-10-07T09:57:33.989Z,9.10
2022-10-07T10:00:21.267Z,12.10
2022-10-07T10:03:15.005Z,10.60
2022-10-07T10:05:59.105Z,9.60
2022-10-07T10:08:31.904Z,9.70
2022-10-07T10:11:03.051Z,10.80
2022-10-07T10:13:38.937Z,10.40
2022-10-07T10:16:41.229Z,10.20
2022-10-07T10:19:27.853Z,12.00
2022-10-07T10:21:58.270Z,11.20
2022-10-07T10:24:50.340Z,13.40
2022-10-07T10:27:18.799Z,11.30
2022-10-07T10:29:50.062Z,11.80
2022-10-07T10:32:42.447Z,9.70
2022-10-07T10:35:26.340Z,8.60
2022-10-07T10:38:32.554Z,10.00
2022-10-07T10:41:11.403Z,10.40
2022-10-07T10:43:42.542Z,14.00
2022-10-07T10:46:36.126Z,11.00
2022-10-07T10:49:43.135Z,10.30
2022-10-07T10:52:20.493Z,10.30
2022-10-07T10:54:51.911Z,12.60
2022-10-07T10:58:00.684Z,12.30
2022-10-07T11:00:56.366Z,11.30
2022-10-07T11:04:16.754Z,10.20
2022-10-07T11:06:51.243Z,10.20
2022-10-07T11:09:44.597Z,9.50
2022-10-07T11:12:29.827Z,12.20
2022-10-07T11:15:06.094Z,11.00
2022-10-07T11:17:38.160Z,10.30
2022-10-07T11:20:25.462Z,11.40
2022-10-07T11:23:18.648Z,7.20
2022-10-07T11:26:17.110Z,7.90
2022-10-07T11:28:46.880Z,11.30
2022-10-07T11:31:37.045Z,9.90
2022-10-07T11:34:19.190Z,12.60
2022-10-07T11:37:16.463Z,9.00
2022-10-07T11:39:44.764Z,7.90
2022-10-07T11:42:27.438Z,11.50
2022-10-07T11:45:04.190Z,14.10
2022-10-07T11:47:42.334Z,10.80
2022-10-07T11:50:18.235Z,11.80
2022-10-07T11:52:51.793Z,10.20
2022-10-07T11:55:22.474Z,11.20
2022-10-07T11:58:00.475Z,11.50
2022-10-07T12:00:30.496Z,8.10
2022-10-07T12:03:30.935Z,11.00
2022-10-07T12:06:10.509Z,11.00
2022-10-07T12:08:42.290Z,9.10
2022-10-07T12:11:13.347Z,8.90
2022-10-07T12:13:51.883Z,9.10
2022-10-07T12:16:30.423Z,12.30
2022-10-07T12:19:07.968Z,12.70
2022-10-07T12:22:04.988Z,20.10
2022-10-07T12:24:36.601Z,8.50
2022-10-07T12:27:21.715Z,11.20
2022-10-07T12:29:59.778Z,17.00
2022-10-07T12:32:46.883Z,8.30
2022-10-07T12:35:34.979Z,8.30
2022-10-07T12:38:17.329Z,8.40
2022-10-07T12:41:08.562Z,12.10
2022-10-07T12:43:36.658Z,10.40
2022-10-07T12:46:15.448Z,9.40
2022-10-07T12:49:14.274Z,12.50
2022-10-07T12:51:45.231Z,8.40
2022-10-07T12:54:20.492Z,8.00
2022-10-07T12:56:49.558Z,9.30
2022-10-07T12:59:48.046Z,7.60
2022-10-07T13:02:34.597Z,8.10
2022-10-07T13:05:37.305Z,6.10
2022-10-07T13:08:24.539Z,5.40
2022-10-07T13:10:56.398Z,5.60
2022-10-07T13:13:37.085Z,8.70
2022-10-07T13:16:34.378Z,7.10
2022-10-07T13:19:27.279Z,10.70
2022-10-07T13:22:15.018Z,10.40
2022-10-07T13:24:50.045Z,9.30
2022-10-07T13:27:21.295Z,7.00
2022-10-07T13:29:49.565Z,6.90
2022-10-07T13:32:30.454Z,8.90
2022-10-07T13:35:01.498Z,22.00
2022-10-07T13:37:35.907Z,9.80
2022-10-07T13:42:59.899Z,8.60
2022-10-07T13:45:29.519Z,10.30
2022-10-07T13:47:57.969Z,23.10
2022-10-07T13:50:29.624Z,18.00
2022-10-07T13:52:59.147Z,10.20
2022-10-07T13:55:31.920Z,9.70
2022-10-07T13:58:04.611Z,11.20
2022-10-07T14:00:36.240Z,10.10
2022-10-07T14:03:16.894Z,9.00
2022-10-07T14:05:53.824Z,8.40
2022-10-07T14:08:24.903Z,9.00
2022-10-07T14:11:02.326Z,12.90
2022-10-07T14:13:32.258Z,14.90
2022-10-07T14:16:00.711Z,9.40
2022-10-07T14:18:32.090Z,9.90
2022-10-07T14:21:17.762Z,15.70
2022-10-07T14:23:49.475Z,10.20
2022-10-07T14:26:19.214Z,8.30
2022-10-07T14:28:47.470Z,21.30
2022-10-07T14:31:34.152Z,13.00
2022-10-07T14:34:34.878Z,7.20
2022-10-07T14:37:09.966Z,12.50
2022-10-07T14:39:49.925Z,10.60
2022-10-07T14:42:28.126Z,7.70
2022-10-07T14:44:58.165Z,11.60
2022-10-07T14:47:28.778Z,6.90
2022-10-07T14:49:59.601Z,18.30
2022-10-07T14:52:34.946Z,110.90
2022-10-07T14:57:34.574Z,34.30
2022-10-07T15:00:07.158Z,17.60
2022-10-07T15:02:35.466Z,15.20
2022-10-07T15:05:05.519Z,9.80
2022-10-07T15:07:33.731Z,11.40
2022-10-07T15:10:02.023Z,10.80
2022-10-07T15:12:30.785Z,8.70
2022-10-07T15:14:58.953Z,14.50
2022-10-07T15:17:27.159Z,11.20
2022-10-07T15:19:55.651Z,139.60
2022-10-07T15:22:23.875Z,158.10
2022-10-07T15:24:52.032Z,63.40
2022-10-07T15:27:20.157Z,23.50
2022-10-07T15:29:50.649Z,11.50
2022-10-07T15:32:18.830Z,65.70
2022-10-07T15:34:47.152Z,29.60
2022-10-07T15:37:16.012Z,15.60
2022-10-07T15:39:44.372Z,19.90
2022-10-07T15:42:15.633Z,15.60
2022-10-07T15:44:44.920Z,13.30
2022-10-07T15:47:13.521Z,9.60
2022-10-07T15:49:41.695Z,10.20
2022-10-07T15:52:12.314Z,60.70
2022-10-07T15:54:40.672Z,38.00
2022-10-07T15:57:09.390Z,31.10
2022-10-07T15:59:37.866Z,11.90
2022-10-07T16:02:07.747Z,11.50
2022-10-07T16:04:40.247Z,11.00
2022-10-07T16:07:11.434Z,10.30
2022-10-07T16:09:40.447Z,13.80
2022-10-07T16:12:11.634Z,17.60
2022-10-07T16:14:39.894Z,12.10
2022-10-07T16:17:08.583Z,10.00
2022-10-07T16:19:36.774Z,16.20
2022-10-07T16:22:05.013Z,17.40
2022-10-07T16:24:35.499Z,11.90
2022-10-07T16:27:04.261Z,12.80
2022-10-07T16:29:51.110Z,11.60
2022-10-07T16:32:19.279Z,13.70
2022-10-07T16:34:50.256Z,9.90
2022-10-07T16:37:18.537Z,13.30
2022-10-07T16:39:47.136Z,14.20
2022-10-07T16:42:15.626Z,16.40
2022-10-07T16:44:47.254Z,15.00
2022-10-07T16:47:24.405Z,16.10
2022-10-07T16:49:52.678Z,14.40
2022-10-07T16:52:21.826Z,15.60
2022-10-07T16:54:50.018Z,11.70
2022-10-07T16:57:18.836Z,9.90
2022-10-07T16:59:46.976Z,11.40
2022-10-07T17:02:15.226Z,16.10
2022-10-07T17:04:44.019Z,18.70
2022-10-07T17:07:12.467Z,13.60
2022-10-07T17:09:40.618Z,13.80
2022-10-07T17:12:09.357Z,18.10
2022-10-07T17:14:38.975Z,14.00
2022-10-07T17:17:08.480Z,17.40
2022-10-07T17:19:36.823Z,17.30
2022-10-07T17:22:05.153Z,25.00
2022-10-07T17:24:34.026Z,28.30
2022-10-07T17:27:02.233Z,19.20
2022-10-07T17:29:33.538Z,19.60
2022-10-07T17:32:01.857Z,22.10
2022-10-07T17:34:30.142Z,54.10
2022-10-07T17:36:59.912Z,67.60
2022-10-07T17:39:28.358Z,82.90
2022-10-07T17:41:57.588Z,67.80
2022-10-07T17:44:25.780Z,88.20
2022-10-07T17:46:55.915Z,80.50
2022-10-07T17:49:24.753Z,36.60
2022-10-07T17:51:52.928Z,40.10
2022-10-07T17:54:21.347Z,39.50
2022-10-07T17:56:49.890Z,30.40
2022-10-07T17:59:18.058Z,28.60
2022-10-07T18:01:46.450Z,37.40
2022-10-07T18:04:22.490Z,65.30
2022-10-07T18:06:53.166Z,50.40
2022-10-07T18:09:22.853Z,36.10
2022-10-07T18:12:09.792Z,87.10
2022-10-07T18:14:56.682Z,84.50
2022-10-07T18:17:25.080Z,216.90
2022-10-07T18:19:53.465Z,335.30
2022-10-07T18:22:22.113Z,251.70
2022-10-07T18:24:50.889Z,330.00
2022-10-07T18:27:22.149Z,211.70
2022-10-07T18:29:50.380Z,121.30
2022-10-07T18:32:18.584Z,108.80
2022-10-07T18:34:47.684Z,77.60
2022-10-07T18:37:17.091Z,94.50
2022-10-07T18:39:45.297Z,76.20
2022-10-07T18:42:13.567Z,61.00
2022-10-07T18:44:41.934Z,48.40
2022-10-07T18:47:10.286Z,43.90
2022-10-07T18:49:38.594Z,43.50
2022-10-07T18:52:07.554Z,31.10
2022-10-07T18:54:35.803Z,28.20
2022-10-07T18:57:04.141Z,28.40
2022-10-07T18:59:32.370Z,26.30
2022-10-07T19:02:00.788Z,21.60
2022-10-07T19:04:31.226Z,21.10
2022-10-07T19:07:00.734Z,20.00
2022-10-07T19:09:29.303Z,19.30
2022-10-07T19:11:59.282Z,21.60
2022-10-07T19:14:31.317Z,21.90
2022-10-07T19:16:59.779Z,26.10
2022-10-07T19:19:30.286Z,25.10
2022-10-07T19:21:58.665Z,21.40
2022-10-07T19:24:46.137Z,19.60
2022-10-07T19:27:14.878Z,20.20
2022-10-07T19:29:43.204Z,18.60
2022-10-07T19:32:11.460Z,18.90
2022-10-07T19:34:39.633Z,21.40
2022-10-07T19:37:07.811Z,19.80
2022-10-07T19:39:36.158Z,23.10
2022-10-07T19:42:04.573Z,25.10
2022-10-07T19:44:33.721Z,25.90
2022-10-07T19:47:02.601Z,25.10
2022-10-07T19:49:33.765Z,24.60
2022-10-07T19:52:02.055Z,27.40
2022-10-07T19:54:36.028Z,30.40
2022-10-07T19:57:04.421Z,25.20
2022-10-07T19:59:32.645Z,21.50
2022-10-07T20:02:01.368Z,27.20
2022-10-07T20:04:30.254Z,26.80
2022-10-07T20:06:59.255Z,23.80
2022-10-07T20:09:27.527Z,22.60
2022-10-07T20:12:00.526Z,20.30
2022-10-07T20:14:28.732Z,21.00
2022-10-07T20:16:57.226Z,18.50
2022-10-07T20:19:25.865Z,15.00
2022-10-07T20:21:54.711Z,15.00
2022-10-07T20:24:23.193Z,19.40
2022-10-07T20:26:51.314Z,18.00
2022-10-07T20:29:25.391Z,18.50
2022-10-07T20:31:54.107Z,19.00
2022-10-07T20:34:22.858Z,19.50
2022-10-07T20:36:50.945Z,20.20
2022-10-07T20:39:39.422Z,21.10
2022-10-07T20:42:22.238Z,17.30
2022-10-07T20:44:52.039Z,18.90
2022-10-07T20:47:23.436Z,23.00
2022-10-07T20:49:52.779Z,17.00
2022-10-07T20:52:23.814Z,18.60
2022-10-07T20:54:52.982Z,17.50
2022-10-07T20:57:24.458Z,16.50
2022-10-07T20:59:53.261Z,24.20
2022-10-07T21:02:23.800Z,19.90
2022-10-07T21:04:52.026Z,17.30
2022-10-07T21:07:21.017Z,18.80
2022-10-07T21:09:49.217Z,21.20
2022-10-07T21:12:18.567Z,20.20
2022-10-07T21:14:48.694Z,19.30
2022-10-07T21:17:17.287Z,19.40
2022-10-07T21:19:45.998Z,19.10
2022-10-07T21:22:14.297Z,18.10
2022-10-07T21:24:42.927Z,17.40
2022-10-07T21:27:11.687Z,17.20
2022-10-07T21:29:41.224Z,19.80
2022-10-07T21:32:11.497Z,17.10
2022-10-07T21:34:40.169Z,16.50
2022-10-07T21:37:08.532Z,15.70
2022-10-07T21:39:39.539Z,17.60
2022-10-07T21:42:07.836Z,20.20
2022-10-07T21:44:36.291Z,16.50
2022-10-07T21:47:05.300Z,17.80
2022-10-07T21:49:33.570Z,18.00
2022-10-07T21:52:03.033Z,15.90
2022-10-07T21:54:31.232Z,19.50
2022-10-07T21:56:59.470Z,19.10
2022-10-07T21:59:27.638Z,18.80
2022-10-07T22:01:56.258Z,16.10
2022-10-07T22:04:25.124Z,19.30
2022-10-07T22:07:12.058Z,16.70
2022-10-07T22:09:40.361Z,21.70
2022-10-07T22:12:09.078Z,19.60
2022-10-07T22:14:38.093Z,20.50
2022-10-07T22:17:08.411Z,21.80
2022-10-07T22:19:36.590Z,20.50
2022-10-07T22:22:04.846Z,20.90
2022-10-07T22:24:34.474Z,23.90
2022-10-07T22:27:03.754Z,20.60
2022-10-07T22:29:32.096Z,25.20
2022-10-07T22:32:00.266Z,26.60
2022-10-07T22:34:47.315Z,25.30
2022-10-07T22:37:15.485Z,18.40
2022-10-07T22:39:43.732Z,20.60
2022-10-07T22:42:11.950Z,19.40
2022-10-07T22:44:40.139Z,22.70
2022-10-07T22:47:08.284Z,20.80
2022-10-07T22:49:36.445Z,23.50
2022-10-07T22:52:04.663Z,18.50
2022-10-07T22:54:32.941Z,24.10
2022-10-07T22:57:01.276Z,18.60
2022-10-07T22:59:29.454Z,24.40
2022-10-07T23:01:57.555Z,20.00
2022-10-07T23:04:26.566Z,16.80
2022-10-07T23:06:54.874Z,18.30
2022-10-07T23:09:23.026Z,21.30
2022-10-07T23:11:51.378Z,17.30
2022-10-07T23:14:19.541Z,27.80
2022-10-07T23:16:47.768Z,22.00
2022-10-07T23:19:16.114Z,17.20
2022-10-07T23:21:44.996Z,17.10
2022-10-07T23:24:14.053Z,16.70
2022-10-07T23:26:43.478Z,16.50
2022-10-07T23:29:12.562Z,26.50
2022-10-07T23:31:40.744Z,18.00
2022-10-07T23:34:10.720Z,17.80
2022-10-07T23:36:39.445Z,17.20
2022-10-07T23:39:07.559Z,16.70
2022-10-07T23:41:36.212Z,16.10
2022-10-07T23:44:04.740Z,19.40
2022-10-07T23:46:36.055Z,15.50
2022-10-07T23:49:04.750Z,23.10
2022-10-07T23:51:34.249Z,19.60
2022-10-07T23:54:04.585Z,20.10
2022-10-07T23:56:33.341Z,20.90
2022-10-07T23:59:02.991Z,23.50
